createdAt,value
2019-02-08T00:04:47.371Z,98245.98
2019-02-08T00:11:13.978Z,98246.80
2019-02-08T00:17:43.515Z,98255.89
2019-02-08T00:24:08.860Z,98268.20
2019-02-08T00:30:47.812Z,98280.02
2019-02-08T00:37:15.400Z,98279.99
2019-02-08T00:43:05.112Z,98280.75
2019-02-08T00:49:32.954Z,98278.84
2019-02-08T00:59:33.908Z,98283.90
2019-02-08T01:05:57.704Z,98280.66
2019-02-08T01:12:25.287Z,98276.80
2019-02-08T01:18:51.136Z,98287.28
2019-02-08T01:25:30.092Z,98291.70
2019-02-08T01:31:56.766Z,98291.04
2019-02-08T01:38:22.961Z,98290.61
2019-02-08T01:44:26.346Z,98286.55
2019-02-08T01:51:05.299Z,98284.90
2019-02-08T02:01:08.243Z,98292.13
2019-02-08T02:07:34.091Z,98291.66
2019-02-08T02:14:00.761Z,98295.86
2019-02-08T02:20:42.097Z,98295.66
2019-02-08T02:27:07.919Z,98280.91
2019-02-08T02:33:35.516Z,98279.61
2019-02-08T02:40:01.363Z,98272.33
2019-02-08T02:46:34.470Z,98281.38
2019-02-08T02:53:02.078Z,98280.91
2019-02-08T03:03:05.018Z,98283.41
2019-02-08T03:09:30.873Z,98277.02
2019-02-08T03:16:09.824Z,98272.67
2019-02-08T03:22:35.676Z,98273.81
2019-02-08T03:29:02.361Z,98280.50
2019-02-08T03:35:39.631Z,98274.23
2019-02-08T03:42:05.453Z,98272.00
2019-02-08T03:48:31.277Z,98273.42
2019-02-08T03:54:59.112Z,98268.25
2019-02-08T04:04:32.792Z,98259.90
2019-02-08T04:10:33.167Z,98256.88
2019-02-08T04:17:10.075Z,98257.11
2019-02-08T04:23:43.703Z,98255.06
2019-02-08T04:30:32.917Z,98256.67
2019-02-08T04:33:46.157Z,98257.91
2019-02-08T04:39:37.629Z,98263.00
2019-02-08T04:46:16.586Z,98256.45
2019-02-08T04:52:42.401Z,98256.73
2019-02-08T04:59:10.242Z,98256.83
2019-02-08T05:05:35.826Z,98253.48
2019-02-08T05:12:14.783Z,98248.73
2019-02-08T05:18:40.636Z,98246.05
2019-02-08T05:25:07.662Z,98246.58
2019-02-08T05:31:48.635Z,98235.13
2019-02-08T05:41:38.471Z,98219.13
2019-02-08T05:48:06.312Z,98210.61
2019-02-08T05:54:33.941Z,98215.02
2019-02-08T06:01:02.653Z,98218.42
2019-02-08T06:07:41.957Z,98206.16
2019-02-08T06:14:07.776Z,98208.80
2019-02-08T06:20:35.359Z,98214.66
2019-02-08T06:27:12.547Z,98214.02
2019-02-08T06:33:36.346Z,98223.77
2019-02-08T06:43:14.847Z,98212.31
2019-02-08T06:49:40.697Z,98212.97
2019-02-08T06:56:07.723Z,98210.09
2019-02-08T07:03:04.754Z,98218.67
2019-02-08T07:09:52.899Z,98229.72
2019-02-08T07:16:31.270Z,98239.84
2019-02-08T07:23:20.897Z,98243.09
2019-02-08T07:30:19.496Z,98246.07
2019-02-08T07:37:25.297Z,98249.27
2019-02-08T07:43:30.872Z,98247.89
2019-02-08T07:50:16.902Z,98248.16
2019-02-08T07:56:52.821Z,98244.80
2019-02-08T08:03:29.373Z,98237.38
2019-02-08T08:10:42.736Z,98219.30
2019-02-08T08:18:10.448Z,98218.66
2019-02-08T08:25:14.702Z,98224.72
2019-02-08T08:40:36.406Z,98232.87
2019-02-08T08:48:06.969Z,98246.01
2019-02-08T08:55:42.764Z,98233.23
2019-02-08T09:03:26.948Z,98233.42
2019-02-08T09:11:13.988Z,98238.86
2019-02-08T09:18:41.190Z,98234.47
2019-02-08T09:26:05.617Z,98230.16
2019-02-08T09:33:05.978Z,98219.31
2019-02-08T09:40:59.411Z,98221.95
2019-02-08T09:48:33.153Z,98219.23
2019-02-08T09:56:02.602Z,98210.39
2019-02-08T10:04:12.038Z,98201.48
2019-02-08T10:11:34.420Z,98192.73
2019-02-08T10:19:10.348Z,98198.42
2019-02-08T10:26:28.589Z,98197.34
2019-02-08T10:33:52.072Z,98193.15
2019-02-08T10:41:34.639Z,98195.31
2019-02-08T10:52:56.410Z,98186.28
2019-02-08T11:00:03.106Z,98174.14
2019-02-08T11:07:48.244Z,98169.98
2019-02-08T11:15:45.548Z,98158.86
2019-02-08T11:22:10.571Z,98158.89
2019-02-08T11:28:34.375Z,98132.38
2019-02-08T11:35:01.057Z,98134.48
2019-02-08T11:41:29.244Z,98127.38
2019-02-08T11:47:58.886Z,98122.67
2019-02-08T11:51:01.908Z,98112.95
2019-02-08T11:57:39.854Z,98099.33
2019-02-08T12:04:19.814Z,98096.78
2019-02-08T12:10:47.653Z,98091.73
2019-02-08T12:17:15.280Z,98089.98
2019-02-08T12:23:44.012Z,98078.81
2019-02-08T12:30:14.069Z,98065.36
2019-02-08T12:36:39.815Z,98051.73
2019-02-08T12:43:08.513Z,98047.88
2019-02-08T12:53:23.743Z,98030.58
2019-02-08T13:00:04.910Z,98020.02
2019-02-08T13:06:44.888Z,98021.80
2019-02-08T13:13:23.842Z,97998.64
2019-02-08T13:19:25.427Z,97987.25
2019-02-08T13:25:53.063Z,97972.50
2019-02-08T13:32:19.734Z,97949.81
2019-02-08T13:38:47.930Z,97942.84
2019-02-08T13:45:26.887Z,97935.71
2019-02-08T13:55:16.722Z,97917.71
2019-02-08T14:01:55.674Z,97917.54
2019-02-08T14:08:23.275Z,97914.63
2019-02-08T14:14:49.125Z,97919.67
2019-02-08T14:20:42.616Z,97917.38
2019-02-08T14:27:09.285Z,97907.14
2019-02-08T14:33:48.243Z,97898.24
2019-02-08T14:40:18.482Z,97885.74
2019-02-08T14:46:44.040Z,97886.23
2019-02-08T14:56:45.244Z,97874.98
2019-02-08T15:03:13.083Z,97868.19
2019-02-08T15:09:38.682Z,97865.26
2019-02-08T15:16:19.294Z,97848.67
2019-02-08T15:22:56.592Z,97845.73
2019-02-08T15:29:23.634Z,97834.05
2019-02-08T15:35:48.296Z,97822.83
2019-02-08T15:42:17.296Z,97817.83
2019-02-08T15:48:44.908Z,97804.97
2019-02-08T15:58:10.574Z,97795.72
2019-02-08T16:04:37.245Z,97782.06
2019-02-08T16:11:14.491Z,97786.62
2019-02-08T16:17:44.100Z,97772.34
2019-02-08T16:24:17.245Z,97771.00
2019-02-08T16:31:00.243Z,97751.20
2019-02-08T16:37:25.821Z,97752.81
2019-02-08T16:43:49.617Z,97749.58
2019-02-08T16:49:50.072Z,97739.20
2019-02-08T17:00:04.771Z,97743.77
2019-02-08T17:06:42.209Z,97727.19
2019-02-08T17:13:08.060Z,97719.73
2019-02-08T17:19:31.860Z,97723.96
2019-02-08T17:26:08.773Z,97712.12
2019-02-08T17:32:35.443Z,97698.48
2019-02-08T17:39:03.680Z,97693.64
2019-02-08T17:45:31.509Z,97683.11
2019-02-08T17:51:34.096Z,97687.16
2019-02-08T18:01:36.682Z,97681.20
2019-02-08T18:08:02.885Z,97679.09
2019-02-08T18:14:30.725Z,97678.27
2019-02-08T18:21:13.721Z,97676.03
2019-02-08T18:27:39.338Z,97668.73
2019-02-08T18:33:31.017Z,97664.38
2019-02-08T18:39:56.836Z,97665.08
2019-02-08T18:46:35.587Z,97654.66
2019-02-08T18:53:02.612Z,97652.05
2019-02-08T19:03:04.375Z,97623.30
2019-02-08T19:09:33.092Z,97616.64
2019-02-08T19:15:57.228Z,97618.09
2019-02-08T19:22:36.178Z,97608.84
2019-02-08T19:29:06.047Z,97595.05
2019-02-08T19:35:31.858Z,97579.49
2019-02-08T19:42:15.574Z,97567.59
2019-02-08T19:48:45.715Z,97569.57
2019-02-08T19:55:21.652Z,97558.86
2019-02-08T20:04:51.732Z,97535.14
2019-02-08T20:11:17.999Z,97533.70
2019-02-08T20:18:00.101Z,97517.94
2019-02-08T20:24:31.420Z,97516.13
2019-02-08T20:31:04.626Z,97509.03
2019-02-08T20:37:45.831Z,97514.09
2019-02-08T20:44:14.350Z,97499.33
2019-02-08T20:50:40.507Z,97490.88
2019-02-08T20:57:21.202Z,97488.29
2019-02-08T21:03:26.076Z,97480.85
2019-02-08T21:09:53.915Z,97471.73
2019-02-08T21:12:36.265Z,97467.16
2019-02-08T21:19:04.170Z,97455.83
2019-02-08T21:25:37.251Z,97453.11
2019-02-08T21:32:02.828Z,97448.59
2019-02-08T21:38:33.593Z,97444.27
2019-02-08T21:45:02.716Z,97451.38
2019-02-08T21:51:29.386Z,97453.84
2019-02-08T21:58:08.354Z,97441.02
2019-02-08T22:03:58.036Z,97441.02
2019-02-08T22:10:17.447Z,97444.27
2019-02-08T22:16:44.533Z,97439.20
2019-02-08T22:23:24.584Z,97421.66
2019-02-08T22:29:52.198Z,97402.34
2019-02-08T22:36:18.050Z,97383.17
2019-02-08T22:43:03.969Z,97376.06
2019-02-08T22:49:45.244Z,97348.31
2019-02-08T22:56:12.885Z,97381.13
2019-02-08T23:02:52.658Z,97371.48
2019-02-08T23:09:43.896Z,97361.26
2019-02-08T23:16:12.611Z,97351.85
2019-02-08T23:22:38.773Z,97345.36
2019-02-08T23:29:19.744Z,97336.05
2019-02-08T23:35:45.315Z,97311.25
2019-02-08T23:42:11.168Z,97298.95
2019-02-08T23:48:50.125Z,97294.05
2019-02-08T23:55:20.888Z,97283.62
